createdAt,value
2018-02-26T00:00:52.132Z,-4.98
2018-02-26T00:02:02.104Z,-5.16
2018-02-26T00:03:11.560Z,-5.16
2018-02-26T00:04:21.251Z,-5.16
2018-02-26T00:05:31.215Z,-5.17
2018-02-26T00:06:40.906Z,-5.2
2018-02-26T00:07:50.333Z,-5.19
2018-02-26T00:09:00.037Z,-5.28
2018-02-26T00:10:09.483Z,-5.23
2018-02-26T00:11:19.178Z,-5.23
2018-02-26T00:12:28.351Z,-5.2
2018-02-26T00:13:37.797Z,-5.3
2018-02-26T00:14:47.752Z,-5.19
2018-02-26T00:15:57.184Z,-5.25
2018-02-26T00:17:07.138Z,-5.25
2018-02-26T00:18:16.832Z,-5.25
2018-02-26T00:19:26.523Z,-5.17
2018-02-26T00:20:36.495Z,-5.25
2018-02-26T00:21:46.210Z,-5.28
2018-02-26T00:22:55.981Z,-5.28
2018-02-26T00:24:05.718Z,-5.32
2018-02-26T00:25:15.676Z,-5.32
2018-02-26T00:26:25.371Z,-5.32
2018-02-26T00:27:34.810Z,-5.35
2018-02-26T00:28:44.772Z,-5.31
2018-02-26T00:29:54.207Z,-5.32
2018-02-26T00:31:04.166Z,-5.41
2018-02-26T00:32:13.849Z,-5.34
2018-02-26T00:33:23.544Z,-5.41
2018-02-26T00:34:33.254Z,-5.28
2018-02-26T00:35:43.155Z,-5.43
2018-02-26T00:36:52.844Z,-5.41
2018-02-26T00:38:02.028Z,-5.46
2018-02-26T00:39:11.985Z,-5.5
2018-02-26T00:40:21.939Z,-5.52
2018-02-26T00:41:31.376Z,-5.52
2018-02-26T00:42:41.081Z,-5.58
2018-02-26T00:43:50.783Z,-5.55
2018-02-26T00:45:00.476Z,-5.53
2018-02-26T00:46:10.171Z,-5.55
2018-02-26T00:47:19.607Z,-5.59
2018-02-26T00:48:29.041Z,-5.66
2018-02-26T00:49:38.489Z,-5.71
2018-02-26T00:50:48.450Z,-5.71
2018-02-26T00:51:58.406Z,-5.71
2018-02-26T00:53:08.098Z,-5.7
2018-02-26T00:54:17.282Z,-5.67
2018-02-26T00:55:26.977Z,-5.7
2018-02-26T00:56:36.669Z,-5.67
2018-02-26T00:57:46.618Z,-5.84
2018-02-26T00:58:56.568Z,-5.73
2018-02-26T01:00:06.266Z,-5.84
2018-02-26T01:01:16.215Z,-5.73
2018-02-26T01:02:25.906Z,-5.89
2018-02-26T01:03:35.602Z,-5.71
2018-02-26T01:04:45.297Z,-5.84
2018-02-26T01:05:54.983Z,-5.81
2018-02-26T01:07:04.939Z,-5.81
2018-02-26T01:08:14.641Z,-5.82
2018-02-26T01:09:24.351Z,-5.88
2018-02-26T01:10:34.091Z,-5.94
2018-02-26T01:11:43.781Z,-5.85
2018-02-26T01:12:53.220Z,-5.88
2018-02-26T01:14:03.183Z,-5.85
2018-02-26T01:15:13.153Z,-5.92
2018-02-26T01:16:22.593Z,-5.89
2018-02-26T01:17:32.280Z,-5.91
2018-02-26T01:18:42.225Z,-5.91
2018-02-26T01:19:52.170Z,-5.91
2018-02-26T01:21:01.600Z,-5.99
2018-02-26T01:22:11.294Z,-6
2018-02-26T01:23:21.242Z,-5.99
2018-02-26T01:24:31.196Z,-6.07
2018-02-26T01:25:41.208Z,-6.07
2018-02-26T01:26:51.152Z,-6.1
2018-02-26T01:28:01.111Z,-6.12
2018-02-26T01:29:10.803Z,-6.12
2018-02-26T01:30:20.760Z,-6.12
2018-02-26T01:31:30.706Z,-6.09
2018-02-26T01:32:40.660Z,-6.13
2018-02-26T01:33:50.613Z,-6.23
2018-02-26T01:35:00.569Z,-6.3
2018-02-26T01:36:10.009Z,-6.27
2018-02-26T01:37:19.960Z,-6.2
2018-02-26T01:38:29.397Z,-6.2
2018-02-26T01:39:39.352Z,-6.26
2018-02-26T01:40:48.798Z,-6.31
2018-02-26T01:41:58.480Z,-6.26
2018-02-26T01:43:07.656Z,-6.38
2018-02-26T01:44:17.609Z,-6.46
2018-02-26T01:45:27.567Z,-6.38
2018-02-26T01:46:37.567Z,-6.39
2018-02-26T01:47:47.519Z,-6.54
2018-02-26T01:48:57.202Z,-6.48
2018-02-26T01:50:06.897Z,-6.51
2018-02-26T01:51:16.323Z,-6.48
2018-02-26T01:52:26.294Z,-6.54
2018-02-26T01:53:35.992Z,-6.61
2018-02-26T01:54:45.440Z,-6.6
2018-02-26T01:55:54.884Z,-6.56
2018-02-26T01:57:04.845Z,-6.67
2018-02-26T01:58:14.793Z,-6.66
2018-02-26T01:59:24.235Z,-6.61
2018-02-26T02:00:34.186Z,-6.68
2018-02-26T02:01:43.616Z,-6.67
2018-02-26T02:02:53.314Z,-6.68
2018-02-26T02:04:03.013Z,-6.68
2018-02-26T02:05:12.995Z,-6.75
2018-02-26T02:06:22.423Z,-6.78
2018-02-26T02:07:32.386Z,-6.78
2018-02-26T02:08:42.350Z,-6.84
2018-02-26T02:09:51.774Z,-6.79
2018-02-26T02:11:01.724Z,-6.79
2018-02-26T02:12:11.676Z,-6.82
2018-02-26T02:13:21.620Z,-6.88
2018-02-26T02:14:31.327Z,-6.95
2018-02-26T02:15:41.285Z,-6.85
2018-02-26T02:16:50.973Z,-6.92
2018-02-26T02:18:00.673Z,-6.96
2018-02-26T02:19:10.170Z,-7
2018-02-26T02:20:19.856Z,-6.95
2018-02-26T02:21:29.799Z,-6.95
2018-02-26T02:22:39.745Z,-6.97
2018-02-26T02:23:49.428Z,-7
2018-02-26T02:24:59.371Z,-7.05
2018-02-26T02:26:09.075Z,-7
2018-02-26T02:27:19.023Z,-7.13
2018-02-26T02:28:28.715Z,-7.15
2018-02-26T02:29:38.723Z,-7.17
2018-02-26T02:30:48.679Z,-7.13
2018-02-26T02:31:57.862Z,-7.13
2018-02-26T02:33:07.816Z,-7.2
2018-02-26T02:34:17.524Z,-7.27
2018-02-26T02:35:27.225Z,-7.18
2018-02-26T02:36:37.187Z,-7.27
2018-02-26T02:37:46.629Z,-7.34
2018-02-26T02:38:56.606Z,-7.36
2018-02-26T02:40:06.303Z,-7.36
2018-02-26T02:41:16.267Z,-7.44
2018-02-26T02:42:25.710Z,-7.53
2018-02-26T02:43:35.399Z,-7.46
2018-02-26T02:44:45.365Z,-7.56
2018-02-26T02:45:55.165Z,-7.52
2018-02-26T02:47:05.137Z,-7.56
2018-02-26T02:48:15.116Z,-7.57
2018-02-26T02:49:24.556Z,-7.53
2018-02-26T02:50:34.527Z,-7.62
2018-02-26T02:51:44.474Z,-7.62
2018-02-26T02:52:54.429Z,-7.6
2018-02-26T02:54:04.140Z,-7.59
2018-02-26T02:55:14.103Z,-7.56
2018-02-26T02:56:23.819Z,-7.63
2018-02-26T02:57:33.516Z,-7.64
2018-02-26T02:58:43.217Z,-7.59
2018-02-26T02:59:52.656Z,-7.62
2018-02-26T03:01:02.089Z,-7.63
2018-02-26T03:02:12.038Z,-7.66
2018-02-26T03:03:21.741Z,-7.67
2018-02-26T03:04:31.194Z,-7.64
2018-02-26T03:05:41.169Z,-7.63
2018-02-26T03:06:51.136Z,-7.59
2018-02-26T03:08:00.564Z,-7.62
2018-02-26T03:09:10.514Z,-7.64
2018-02-26T03:10:20.460Z,-7.62
2018-02-26T03:11:30.401Z,-7.6
2018-02-26T03:12:40.347Z,-7.7
2018-02-26T03:13:50.303Z,-7.7
2018-02-26T03:14:59.998Z,-7.7
2018-02-26T03:16:09.741Z,-7.62
2018-02-26T03:17:19.168Z,-7.64
2018-02-26T03:18:29.123Z,-7.6
2018-02-26T03:19:38.813Z,-7.6
2018-02-26T03:20:48.244Z,-7.62
2018-02-26T03:21:57.941Z,-7.62
2018-02-26T03:23:07.890Z,-7.64
2018-02-26T03:24:17.839Z,-7.63
2018-02-26T03:25:27.524Z,-7.6
2018-02-26T03:26:36.952Z,-7.63
2018-02-26T03:27:46.648Z,-7.55
2018-02-26T03:28:56.336Z,-7.62
2018-02-26T03:30:05.778Z,-7.66
2018-02-26T03:31:15.739Z,-7.6
2018-02-26T03:32:25.690Z,-7.53
2018-02-26T03:33:35.644Z,-7.6
2018-02-26T03:34:45.333Z,-7.62
2018-02-26T03:35:55.016Z,-7.57
2018-02-26T03:37:04.979Z,-7.64
2018-02-26T03:38:14.672Z,-7.63
2018-02-26T03:39:24.367Z,-7.62
2018-02-26T03:40:34.311Z,-7.64
2018-02-26T03:41:44.270Z,-7.6
2018-02-26T03:42:53.969Z,-7.63
2018-02-26T03:44:03.937Z,-7.6
2018-02-26T03:45:13.888Z,-7.67
2018-02-26T03:46:23.320Z,-7.67
2018-02-26T03:47:33.262Z,-7.66
2018-02-26T03:48:43.208Z,-7.77
2018-02-26T03:49:53.159Z,-7.66
2018-02-26T03:51:02.865Z,-7.64
2018-02-26T03:52:12.560Z,-7.71
2018-02-26T03:53:22.250Z,-7.73
2018-02-26T03:54:31.932Z,-7.88
2018-02-26T03:55:41.624Z,-7.88
2018-02-26T03:56:51.570Z,-7.77
2018-02-26T03:58:01.263Z,-7.84
2018-02-26T03:59:11.220Z,-7.89
2018-02-26T04:00:21.173Z,-7.88
2018-02-26T04:01:31.120Z,-7.88
2018-02-26T04:02:40.813Z,-7.92
2018-02-26T04:03:50.499Z,-7.95
2018-02-26T04:04:59.931Z,-7.91
2018-02-26T04:06:09.891Z,-7.95
2018-02-26T04:07:19.837Z,-7.96
2018-02-26T04:08:29.521Z,-7.99
2018-02-26T04:09:39.208Z,-7.98
2018-02-26T04:10:48.914Z,-7.95
2018-02-26T04:11:58.601Z,-7.92
2018-02-26T04:13:08.282Z,-7.98
2018-02-26T04:14:17.969Z,-7.84
2018-02-26T04:15:27.917Z,-7.83
2018-02-26T04:16:37.863Z,-7.91
2018-02-26T04:17:47.558Z,-7.83
2018-02-26T04:18:57.503Z,-7.89
2018-02-26T04:20:06.685Z,-7.85
2018-02-26T04:21:16.635Z,-7.89
2018-02-26T04:22:26.324Z,-7.7
2018-02-26T04:23:35.752Z,-7.7
2018-02-26T04:24:45.178Z,-7.75
2018-02-26T04:25:54.866Z,-7.7
2018-02-26T04:27:04.562Z,-7.63
2018-02-26T04:28:14.255Z,-7.59
2018-02-26T04:29:23.950Z,-7.6
2018-02-26T04:30:33.646Z,-7.6
2018-02-26T04:31:43.342Z,-7.52
2018-02-26T04:32:52.773Z,-7.57
2018-02-26T04:34:02.720Z,-7.46
2018-02-26T04:35:12.714Z,-7.53
2018-02-26T04:36:22.401Z,-7.44
2018-02-26T04:37:32.088Z,-7.36
2018-02-26T04:38:42.033Z,-7.42
2018-02-26T04:39:51.730Z,-7.28
2018-02-26T04:41:01.424Z,-7.24
2018-02-26T04:42:11.113Z,-7.25
2018-02-26T04:43:20.534Z,-7.27
2018-02-26T04:44:30.279Z,-7.14
2018-02-26T04:45:39.959Z,-7.1
2018-02-26T04:46:49.642Z,-7
2018-02-26T04:47:59.588Z,-7.05
2018-02-26T04:49:09.288Z,-7
2018-02-26T04:50:18.971Z,-6.99
2018-02-26T04:51:28.407Z,-6.99
2018-02-26T04:52:37.842Z,-6.91
2018-02-26T04:53:47.278Z,-6.99
2018-02-26T04:54:56.712Z,-6.97
2018-02-26T04:56:06.405Z,-6.97
2018-02-26T04:57:16.089Z,-6.88
2018-02-26T04:58:25.792Z,-6.95
2018-02-26T04:59:35.515Z,-6.91
2018-02-26T05:00:45.210Z,-6.92
2018-02-26T05:01:54.659Z,-6.96
2018-02-26T05:03:04.635Z,-6.88
2018-02-26T05:04:14.590Z,-6.92
2018-02-26T05:05:24.021Z,-6.88
2018-02-26T05:06:33.980Z,-6.88
2018-02-26T05:07:43.940Z,-6.82
2018-02-26T05:08:53.896Z,-6.76
2018-02-26T05:10:03.363Z,-6.76
2018-02-26T05:11:13.062Z,-6.76
2018-02-26T05:12:22.757Z,-6.73
2018-02-26T05:13:32.447Z,-6.63
2018-02-26T05:14:42.423Z,-6.67
2018-02-26T05:15:51.856Z,-6.61
2018-02-26T05:17:01.810Z,-6.54
2018-02-26T05:18:11.528Z,-6.6
2018-02-26T05:19:20.972Z,-6.64
2018-02-26T05:20:30.660Z,-6.52
2018-02-26T05:21:40.086Z,-6.51
2018-02-26T05:22:49.519Z,-6.41
2018-02-26T05:23:59.460Z,-6.45
2018-02-26T05:25:09.420Z,-6.49
2018-02-26T05:26:19.112Z,-6.46
2018-02-26T05:27:28.544Z,-6.41
2018-02-26T05:28:38.494Z,-6.48
2018-02-26T05:29:48.656Z,-6.38
2018-02-26T05:30:58.664Z,-6.44
2018-02-26T05:32:08.614Z,-6.34
2018-02-26T05:33:18.056Z,-6.41
2018-02-26T05:34:28.002Z,-6.34
2018-02-26T05:35:37.178Z,-6.44
2018-02-26T05:36:47.175Z,-6.41
2018-02-26T05:37:56.614Z,-6.41
2018-02-26T05:39:06.552Z,-6.45
2018-02-26T05:40:15.988Z,-6.44
2018-02-26T05:41:25.932Z,-6.41
2018-02-26T05:42:35.886Z,-6.41
2018-02-26T05:43:45.591Z,-6.44
2018-02-26T05:44:55.290Z,-6.44
2018-02-26T05:46:05.240Z,-6.41
2018-02-26T05:47:14.928Z,-6.41
2018-02-26T05:48:24.628Z,-6.52
2018-02-26T05:49:34.317Z,-6.41
2018-02-26T05:50:44.263Z,-6.52
2018-02-26T05:51:53.946Z,-6.56
2018-02-26T05:53:03.885Z,-6.68
2018-02-26T05:54:13.313Z,-6.71
2018-02-26T05:55:23.126Z,-6.66
2018-02-26T05:56:32.562Z,-6.66
2018-02-26T05:57:42.522Z,-6.66
2018-02-26T05:58:52.473Z,-6.7
2018-02-26T06:00:02.431Z,-6.84
2018-02-26T06:01:12.127Z,-6.75
2018-02-26T06:02:21.824Z,-6.85
2018-02-26T06:03:31.260Z,-6.92
2018-02-26T06:04:41.209Z,-6.89
2018-02-26T06:05:50.900Z,-6.96
2018-02-26T06:07:00.598Z,-6.99
2018-02-26T06:08:10.547Z,-6.92
2018-02-26T06:09:20.499Z,-6.91
2018-02-26T06:10:29.933Z,-6.88
2018-02-26T06:11:39.881Z,-6.91
2018-02-26T06:12:49.830Z,-6.95
2018-02-26T06:13:59.516Z,-6.95
2018-02-26T06:15:09.472Z,-6.97
2018-02-26T06:16:19.432Z,-6.99
2018-02-26T06:17:29.384Z,-7.02
2018-02-26T06:18:39.081Z,-7
2018-02-26T06:19:48.765Z,-7.02
2018-02-26T06:20:58.713Z,-7.05
2018-02-26T06:22:08.151Z,-6.97
2018-02-26T06:23:17.870Z,-7.14
2018-02-26T06:24:27.574Z,-7.09
2018-02-26T06:25:37.270Z,-7.13
2018-02-26T06:26:46.966Z,-7.09
2018-02-26T06:27:56.928Z,-7.17
2018-02-26T06:29:06.626Z,-7.14
2018-02-26T06:30:16.318Z,-7.13
2018-02-26T06:31:26.013Z,-7.13
2018-02-26T06:32:35.975Z,-7.13
2018-02-26T06:33:45.406Z,-7.09
2018-02-26T06:34:55.367Z,-7.05
2018-02-26T06:36:05.328Z,-7.09
2018-02-26T06:37:14.758Z,-7.07
2018-02-26T06:38:24.199Z,-7.02
2018-02-26T06:39:33.654Z,-6.97
2018-02-26T06:40:43.618Z,-7.02
2018-02-26T06:41:53.592Z,-6.99
2018-02-26T06:43:03.539Z,-7
2018-02-26T06:44:12.704Z,-7
2018-02-26T06:45:22.136Z,-6.95
2018-02-26T06:46:31.839Z,-6.97
2018-02-26T06:47:41.275Z,-6.99
2018-02-26T06:48:50.965Z,-6.97
2018-02-26T06:50:00.655Z,-6.97
2018-02-26T06:51:10.616Z,-6.92
2018-02-26T06:52:20.308Z,-6.95
2018-02-26T06:53:30.027Z,-6.86
2018-02-26T06:54:39.982Z,-6.91
2018-02-26T06:55:49.710Z,-6.91
2018-02-26T06:56:59.665Z,-6.97
2018-02-26T06:58:09.854Z,-6.86
2018-02-26T06:59:19.854Z,-6.99
2018-02-26T07:00:29.553Z,-6.91
2018-02-26T07:01:39.246Z,-6.92
2018-02-26T07:02:48.945Z,-6.85
2018-02-26T07:03:58.644Z,-6.82
2018-02-26T07:05:08.630Z,-6.71
2018-02-26T07:06:18.589Z,-6.73
2018-02-26T07:07:28.028Z,-6.61
2018-02-26T07:08:37.992Z,-6.54
2018-02-26T07:09:47.692Z,-6.66
2018-02-26T07:10:57.392Z,-6.51
2018-02-26T07:12:07.129Z,-6.46
2018-02-26T07:13:16.606Z,-6.52
2018-02-26T07:14:25.800Z,-6.36
2018-02-26T07:15:35.757Z,-6.44
2018-02-26T07:16:45.720Z,-6.48
2018-02-26T07:17:55.439Z,-6.41
2018-02-26T07:19:04.620Z,-6.34
2018-02-26T07:20:14.582Z,-6.28
2018-02-26T07:21:24.303Z,-6.28
2018-02-26T07:22:34.059Z,-6.21
2018-02-26T07:23:44.032Z,-6.21
2018-02-26T07:24:53.204Z,-6.23
2018-02-26T07:26:02.691Z,-6.16
2018-02-26T07:27:12.647Z,-6.18
2018-02-26T07:28:22.404Z,-6.16
2018-02-26T07:29:32.437Z,-6.06
2018-02-26T07:30:42.389Z,-6.03
2018-02-26T07:31:52.249Z,-5.99
2018-02-26T07:33:02.075Z,-6.02
2018-02-26T07:34:11.528Z,-5.91
2018-02-26T07:35:21.497Z,-5.87
2018-02-26T07:36:30.694Z,-5.88
2018-02-26T07:37:40.408Z,-5.76
2018-02-26T07:38:50.429Z,-5.77
2018-02-26T07:40:00.128Z,-5.85
2018-02-26T07:41:09.836Z,-5.76
2018-02-26T07:42:19.589Z,-5.73
2018-02-26T07:43:29.581Z,-5.81
2018-02-26T07:44:39.594Z,-5.77
2018-02-26T07:45:49.571Z,-5.78
2018-02-26T07:46:59.564Z,-5.7
2018-02-26T07:48:09.541Z,-5.58
2018-02-26T07:49:19.552Z,-5.5
2018-02-26T07:50:28.996Z,-5.52
2018-02-26T07:51:38.780Z,-5.49
2018-02-26T07:52:48.513Z,-5.25
2018-02-26T07:53:58.490Z,-5.27
2018-02-26T07:55:08.176Z,-5.09
2018-02-26T07:56:18.159Z,-5.05
2018-02-26T07:57:27.883Z,-5.05
2018-02-26T07:58:37.876Z,-4.91
2018-02-26T07:59:47.575Z,-4.87
2018-02-26T08:00:57.543Z,-4.87
2018-02-26T08:02:07.024Z,-4.94
2018-02-26T08:03:17.004Z,-4.83
2018-02-26T08:04:27.040Z,-4.81
2018-02-26T08:05:36.750Z,-4.83
2018-02-26T08:06:46.533Z,-4.91
2018-02-26T08:07:56.328Z,-4.94
2018-02-26T08:09:06.305Z,-4.98
2018-02-26T08:10:16.301Z,-4.98
2018-02-26T08:11:26.022Z,-4.88
2018-02-26T08:12:35.463Z,-4.84
2018-02-26T08:13:45.181Z,-4.74
2018-02-26T08:14:54.897Z,-4.65
2018-02-26T08:16:05.126Z,-4.65
2018-02-26T08:17:14.877Z,-4.53
2018-02-26T08:18:24.853Z,-4.4
2018-02-26T08:19:34.564Z,-4.24
2018-02-26T08:20:44.542Z,-4.01
2018-02-26T08:21:54.504Z,-3.83
2018-02-26T08:23:04.200Z,-3.74
2018-02-26T08:24:14.184Z,-3.51
2018-02-26T08:25:24.160Z,-3.48
2018-02-26T08:26:33.869Z,-3.47
2018-02-26T08:27:43.671Z,-3.36
2018-02-26T08:28:53.390Z,-3.32
2018-02-26T08:30:03.351Z,-3.36
2018-02-26T08:31:13.424Z,-3.37
2018-02-26T08:32:23.127Z,-3.29
2018-02-26T08:33:33.114Z,-3.3
2018-02-26T08:34:43.302Z,-3.26
2018-02-26T08:35:52.755Z,-3.25
2018-02-26T08:37:02.516Z,-3.17
2018-02-26T08:38:12.659Z,-3.07
2018-02-26T08:39:22.874Z,-2.94
2018-02-26T08:40:32.856Z,-3.04
2018-02-26T08:41:42.817Z,-3.05
2018-02-26T08:42:52.264Z,-2.94
2018-02-26T08:44:02.044Z,-2.8
2018-02-26T08:45:11.760Z,-2.8
2018-02-26T08:46:21.217Z,-2.62
2018-02-26T08:47:30.656Z,-2.48
2018-02-26T08:48:40.367Z,-2.51
2018-02-26T08:49:50.076Z,-2.29
2018-02-26T08:51:00.049Z,-2.28
2018-02-26T08:52:09.768Z,-2.17
2018-02-26T08:53:19.749Z,-2.14
2018-02-26T08:54:29.210Z,-2.04
2018-02-26T08:55:38.709Z,-1.97
2018-02-26T08:56:48.433Z,-1.79
2018-02-26T08:57:58.143Z,-1.74
2018-02-26T08:59:07.871Z,-1.45
2018-02-26T09:00:17.858Z,-1.27
2018-02-26T09:01:27.583Z,-1.21
2018-02-26T09:02:37.320Z,-1.25
2018-02-26T09:03:47.023Z,-1.15
2018-02-26T09:04:56.786Z,-1.15
2018-02-26T09:06:06.777Z,-1.15
2018-02-26T09:07:16.486Z,-1.06
2018-02-26T09:08:26.454Z,-0.99
2018-02-26T09:09:36.445Z,-0.74
2018-02-26T09:10:46.544Z,-0.46
2018-02-26T09:11:56.303Z,-0.45
2018-02-26T09:13:06.012Z,-0.46
2018-02-26T09:14:16.001Z,-0.17
2018-02-26T09:15:25.837Z,0.01
2018-02-26T09:16:35.798Z,0.19
2018-02-26T09:17:45.791Z,0.33
2018-02-26T09:18:55.521Z,0.34
2018-02-26T09:20:05.239Z,0.45
2018-02-26T09:21:15.229Z,0.49
2018-02-26T09:22:24.976Z,0.49
2018-02-26T09:23:34.430Z,0.58
2018-02-26T09:24:43.880Z,0.44
2018-02-26T09:25:53.583Z,0.37
2018-02-26T09:27:03.315Z,0.2
2018-02-26T09:28:13.332Z,0.15
2018-02-26T09:29:23.059Z,0.13
2018-02-26T09:30:33.036Z,0.15
2018-02-26T09:31:42.754Z,0.13
2018-02-26T09:32:52.726Z,0.18
2018-02-26T09:34:02.457Z,0.01
2018-02-26T09:35:12.184Z,0.2
2018-02-26T09:36:21.918Z,0.15
2018-02-26T09:37:31.427Z,0.2
2018-02-26T09:38:40.883Z,0.34
2018-02-26T09:39:50.871Z,0.37
2018-02-26T09:41:00.885Z,0.45
2018-02-26T09:42:10.862Z,0.67
2018-02-26T09:43:20.848Z,0.99
2018-02-26T09:44:30.559Z,0.92
2018-02-26T09:45:40.748Z,1.25
2018-02-26T09:46:50.479Z,1.6
2018-02-26T09:48:00.499Z,2.03
2018-02-26T09:49:10.265Z,2.33
2018-02-26T09:50:19.993Z,2.46
2018-02-26T09:51:29.712Z,2.08
2018-02-26T09:52:39.431Z,2.07
2018-02-26T09:53:49.400Z,2.08
2018-02-26T09:54:59.375Z,2.21
2018-02-26T09:56:09.087Z,2.04
2018-02-26T09:57:18.805Z,1.74
2018-02-26T09:58:28.506Z,1.46
2018-02-26T09:59:38.490Z,1.45
2018-02-26T10:00:48.359Z,1.36
2018-02-26T10:01:58.085Z,1.48
2018-02-26T10:03:07.820Z,1.74
2018-02-26T10:04:17.824Z,1.78
2018-02-26T10:05:27.537Z,1.63
2018-02-26T10:06:37.371Z,1.74
2018-02-26T10:07:46.836Z,1.58
2018-02-26T10:08:56.813Z,1.64
2018-02-26T10:10:06.523Z,1.52
2018-02-26T10:11:16.302Z,1.43
2018-02-26T10:12:26.306Z,1.28
2018-02-26T10:13:36.039Z,1.1
2018-02-26T10:14:45.756Z,1.03
2018-02-26T10:15:55.786Z,0.82
2018-02-26T10:17:05.748Z,0.84
2018-02-26T10:18:15.717Z,0.84
2018-02-26T10:19:25.448Z,0.85
2018-02-26T10:20:35.316Z,0.66
2018-02-26T10:21:44.768Z,0.59
2018-02-26T10:22:54.722Z,0.52
2018-02-26T10:24:04.432Z,0.23
2018-02-26T10:25:14.414Z,0.3
2018-02-26T10:26:24.062Z,0.24
2018-02-26T10:27:34.094Z,0.36
2018-02-26T10:28:43.810Z,0.45
2018-02-26T10:29:53.275Z,0.64
2018-02-26T10:31:02.775Z,0.84
2018-02-26T10:32:12.753Z,0.88
2018-02-26T10:33:22.730Z,0.86
2018-02-26T10:34:32.690Z,1.07
2018-02-26T10:35:42.665Z,1.36
2018-02-26T10:36:52.373Z,1.27
2018-02-26T10:38:02.085Z,1.36
2018-02-26T10:39:11.547Z,1.4
2018-02-26T10:40:21.283Z,1.38
2018-02-26T10:41:31.249Z,1.52
2018-02-26T10:42:40.980Z,1.43
2018-02-26T10:43:50.164Z,1.12
2018-02-26T10:44:59.890Z,1.07
2018-02-26T10:46:09.103Z,1.03
2018-02-26T10:47:18.816Z,1.06
2018-02-26T10:48:28.534Z,1.18
2018-02-26T10:49:37.994Z,1.22
2018-02-26T10:50:47.727Z,1.1
2018-02-26T10:51:57.222Z,1.25
2018-02-26T10:53:06.961Z,1.12
2018-02-26T10:54:16.444Z,0.94
2018-02-26T10:55:25.905Z,0.81
2018-02-26T10:56:35.630Z,0.61
2018-02-26T10:57:45.628Z,0.73
2018-02-26T10:58:55.624Z,0.67
2018-02-26T11:00:05.077Z,0.61
2018-02-26T11:01:15.048Z,0.68
2018-02-26T11:02:25.063Z,1.02
2018-02-26T11:03:35.059Z,1.06
2018-02-26T11:04:44.779Z,1.18
2018-02-26T11:05:54.491Z,1.28
2018-02-26T11:07:04.475Z,1.46
2018-02-26T11:08:13.924Z,1.64
2018-02-26T11:09:23.663Z,1.76
2018-02-26T11:10:33.374Z,2.04
2018-02-26T11:11:42.814Z,2.16
2018-02-26T11:12:52.512Z,2.08
2018-02-26T11:14:02.482Z,2.19
2018-02-26T11:15:12.479Z,2.07
2018-02-26T11:16:21.933Z,2.26
2018-02-26T11:17:31.683Z,2.5
2018-02-26T11:18:41.403Z,2.73
2018-02-26T11:19:50.877Z,2.8
2018-02-26T11:21:00.338Z,3.05
2018-02-26T11:22:10.075Z,3.15
2018-02-26T11:23:19.791Z,3.33
2018-02-26T11:24:29.768Z,3.48
2018-02-26T11:25:39.722Z,3.7
2018-02-26T11:26:49.507Z,3.33
2018-02-26T11:27:59.228Z,3.33
2018-02-26T11:29:09.223Z,3.43
2018-02-26T11:30:19.357Z,3.31
2018-02-26T11:31:28.285Z,3.21
2018-02-26T11:32:38.020Z,2.95
2018-02-26T11:33:47.991Z,3
2018-02-26T11:34:57.712Z,2.82
2018-02-26T11:36:07.704Z,2.59
2018-02-26T11:37:17.424Z,2.26
2018-02-26T11:38:27.153Z,1.82
2018-02-26T11:39:36.866Z,1.49
2018-02-26T11:40:46.579Z,1.45
2018-02-26T11:41:56.286Z,1.24
2018-02-26T11:43:06.267Z,1.04
2018-02-26T11:44:15.727Z,0.82
2018-02-26T11:45:25.697Z,0.55
2018-02-26T11:46:35.422Z,0.39
2018-02-26T11:47:45.136Z,0.3
2018-02-26T11:48:55.348Z,0.34
2018-02-26T11:50:04.725Z,0.48
2018-02-26T11:51:14.703Z,0.73
2018-02-26T11:52:24.675Z,0.92
2018-02-26T11:53:34.637Z,1.14
2018-02-26T11:54:44.351Z,1.58
2018-02-26T11:55:54.378Z,1.76
2018-02-26T11:57:04.080Z,2.32
2018-02-26T11:58:14.055Z,2.59
2018-02-26T11:59:23.768Z,3
2018-02-26T12:00:33.467Z,3.34
2018-02-26T12:01:42.666Z,3.46
2018-02-26T12:02:52.387Z,3.43
2018-02-26T12:04:02.351Z,3.74
2018-02-26T12:05:11.858Z,3.86
2018-02-26T12:06:21.586Z,3.85
2018-02-26T12:07:31.569Z,3.96
2018-02-26T12:08:41.370Z,3.96
2018-02-26T12:09:50.569Z,3.94
2018-02-26T12:11:00.032Z,4.27
2018-02-26T12:12:10.018Z,4.43
2018-02-26T12:13:20.005Z,4.16
2018-02-26T12:14:29.456Z,4.16
2018-02-26T12:15:39.438Z,4.43
2018-02-26T12:16:49.159Z,4.64
2018-02-26T12:17:58.880Z,4.75
2018-02-26T12:19:08.602Z,4.66
2018-02-26T12:20:17.820Z,4.67
2018-02-26T12:21:27.632Z,4.32
2018-02-26T12:22:37.084Z,4.04
2018-02-26T12:23:47.079Z,3.88
2018-02-26T12:24:57.044Z,3.49
2018-02-26T12:26:07.015Z,3.49
2018-02-26T12:27:16.755Z,3.4
2018-02-26T12:28:26.735Z,3.08
2018-02-26T12:29:36.709Z,3.09
2018-02-26T12:30:46.685Z,2.8
2018-02-26T12:31:56.398Z,2.59
2018-02-26T12:33:06.118Z,2.51
2018-02-26T12:34:15.832Z,2.41
2018-02-26T12:35:25.851Z,2.46
2018-02-26T12:36:35.555Z,2.54
2018-02-26T12:37:45.596Z,2.72
2018-02-26T12:38:55.582Z,2.28
2018-02-26T12:40:05.312Z,2.32
2018-02-26T12:41:15.285Z,2.34
2018-02-26T12:42:24.990Z,2.28
2018-02-26T12:43:34.432Z,2.43
2018-02-26T12:44:43.771Z,2.47
2018-02-26T12:45:53.238Z,2.69
2018-02-26T12:47:02.950Z,2.82
2018-02-26T12:48:12.676Z,2.8
2018-02-26T12:49:22.386Z,3.06
2018-02-26T12:50:32.355Z,3.26
2018-02-26T12:51:42.383Z,3.3
2018-02-26T12:52:52.354Z,3.21
2018-02-26T12:54:02.327Z,2.97
2018-02-26T12:55:12.038Z,2.82
2018-02-26T12:56:22.019Z,2.69
2018-02-26T12:57:31.983Z,2.61
2018-02-26T12:58:41.684Z,2.52
2018-02-26T12:59:51.656Z,2.37
2018-02-26T13:01:01.164Z,2.12
2018-02-26T13:02:11.158Z,1.97
2018-02-26T13:03:20.872Z,1.93
2018-02-26T13:04:30.855Z,1.95
2018-02-26T13:05:40.553Z,1.93
2018-02-26T13:06:50.559Z,2.12
2018-02-26T13:08:00.057Z,2.01
2018-02-26T13:09:10.028Z,1.79
2018-02-26T13:10:19.745Z,1.81
2018-02-26T13:11:29.715Z,1.78
2018-02-26T13:12:39.429Z,1.81
2018-02-26T13:13:49.170Z,1.61
2018-02-26T13:14:58.678Z,1.34
2018-02-26T13:16:08.400Z,1.32
2018-02-26T13:17:17.587Z,1.16
2018-02-26T13:18:27.562Z,1.1
2018-02-26T13:19:37.274Z,1.12
2018-02-26T13:20:47.245Z,0.95
2018-02-26T13:21:57.448Z,0.88
2018-02-26T13:23:07.414Z,0.76
2018-02-26T13:24:17.385Z,0.81
2018-02-26T13:25:27.363Z,0.73
2018-02-26T13:26:37.340Z,0.51
2018-02-26T13:27:47.309Z,0.31
2018-02-26T13:28:57.132Z,0.09
2018-02-26T13:30:07.119Z,0.08
2018-02-26T13:31:17.105Z,-0.17
2018-02-26T13:32:27.064Z,-0.36
2018-02-26T13:33:37.024Z,-0.59
2018-02-26T13:34:47.092Z,-0.7
2018-02-26T13:35:56.540Z,-0.67
2018-02-26T13:37:06.251Z,-0.81
2018-02-26T13:38:15.977Z,-0.78
2018-02-26T13:39:25.944Z,-0.87
2018-02-26T13:40:35.656Z,-0.87
2018-02-26T13:41:45.103Z,-0.94
2018-02-26T13:42:54.812Z,-0.85
2018-02-26T13:44:04.780Z,-0.85
2018-02-26T13:45:14.485Z,-0.97
2018-02-26T13:46:24.446Z,-1.04
2018-02-26T13:47:34.175Z,-1
2018-02-26T13:48:44.141Z,-0.78
2018-02-26T13:49:53.849Z,-0.6
2018-02-26T13:51:03.811Z,-0.39
2018-02-26T13:52:13.805Z,-0.12
2018-02-26T13:53:23.785Z,0.19
2018-02-26T13:54:33.513Z,0.51
2018-02-26T13:55:43.470Z,0.73
2018-02-26T13:56:53.458Z,1
2018-02-26T13:58:03.464Z,1.42
2018-02-26T13:59:13.176Z,1.53
2018-02-26T14:00:23.147Z,1.31
2018-02-26T14:01:33.108Z,1.12
2018-02-26T14:02:42.853Z,0.91
2018-02-26T14:03:52.834Z,0.39
2018-02-26T14:05:02.816Z,0.12
2018-02-26T14:06:12.807Z,-0.2
2018-02-26T14:07:22.592Z,-0.21
2018-02-26T14:08:32.571Z,-0.56
2018-02-26T14:09:42.549Z,-0.67
2018-02-26T14:10:52.269Z,-0.81
2018-02-26T14:12:02.255Z,-0.75
2018-02-26T14:13:12.407Z,-0.78
2018-02-26T14:14:22.387Z,-0.66
2018-02-26T14:15:32.348Z,-0.39
2018-02-26T14:16:42.314Z,-0.06
2018-02-26T14:17:52.276Z,0.36
2018-02-26T14:19:01.976Z,0.55
2018-02-26T14:20:11.969Z,0.74
2018-02-26T14:21:21.950Z,0.67
2018-02-26T14:22:31.916Z,0.56
2018-02-26T14:23:41.740Z,0.42
2018-02-26T14:24:51.705Z,0.19
2018-02-26T14:26:01.152Z,0.08
2018-02-26T14:27:11.144Z,-0.07
2018-02-26T14:28:21.115Z,-0.27
2018-02-26T14:29:30.301Z,-0.33
2018-02-26T14:30:40.262Z,-0.38
2018-02-26T14:31:49.700Z,-0.36
2018-02-26T14:32:59.666Z,-0.57
2018-02-26T14:34:09.398Z,-0.6
2018-02-26T14:35:19.405Z,-0.85
2018-02-26T14:36:29.373Z,-0.94
2018-02-26T14:37:39.093Z,-0.99
2018-02-26T14:38:49.054Z,-1.11
2018-02-26T14:39:59.043Z,-1.06
2018-02-26T14:41:08.747Z,-1.07
2018-02-26T14:42:18.201Z,-1.04
2018-02-26T14:43:28.163Z,-0.64
2018-02-26T14:44:38.129Z,-0.54
2018-02-26T14:45:48.088Z,-0.42
2018-02-26T14:46:57.283Z,-0.42
2018-02-26T14:48:07.269Z,-0.27
2018-02-26T14:49:16.974Z,-0.33
2018-02-26T14:50:26.432Z,-0.17
2018-02-26T14:51:36.140Z,-0.07
2018-02-26T14:52:45.584Z,0.16
2018-02-26T14:53:55.562Z,0.2
2018-02-26T14:55:05.281Z,0.52
2018-02-26T14:56:15.011Z,0.51
2018-02-26T14:57:24.720Z,0.73
2018-02-26T14:58:34.431Z,0.58
2018-02-26T14:59:44.400Z,0.66
2018-02-26T15:00:53.875Z,0.49
2018-02-26T15:02:03.577Z,0.11
2018-02-26T15:03:13.555Z,-0.12
2018-02-26T15:04:23.255Z,-0.28
2018-02-26T15:05:32.958Z,-0.64
2018-02-26T15:06:42.689Z,-0.84
2018-02-26T15:07:52.395Z,-1.04
2018-02-26T15:09:02.130Z,-1.15
2018-02-26T15:10:12.099Z,-1.27
2018-02-26T15:11:22.081Z,-1.45